createdAt,value
2018-01-26T00:00:20.502Z,75.21
2018-01-26T00:00:44.055Z,75.17
2018-01-26T00:01:07.813Z,75.15
2018-01-26T00:01:31.329Z,75.13
2018-01-26T00:01:55.086Z,75.12
2018-01-26T00:02:18.877Z,75.02
2018-01-26T00:02:42.611Z,74.88
2018-01-26T00:03:06.643Z,74.82
2018-01-26T00:03:30.659Z,74.89
2018-01-26T00:03:54.685Z,74.98
2018-01-26T00:04:18.463Z,75.03
2018-01-26T00:04:41.994Z,75.08
2018-01-26T00:05:05.720Z,75.09
2018-01-26T00:05:29.459Z,75.07
2018-01-26T00:05:52.903Z,75.01
2018-01-26T00:06:16.659Z,74.89
2018-01-26T00:06:40.409Z,74.78
2018-01-26T00:07:03.861Z,74.72
2018-01-26T00:07:27.613Z,74.65
2018-01-26T00:07:51.376Z,74.59
2018-01-26T00:08:15.396Z,74.63
2018-01-26T00:08:39.415Z,74.73
2018-01-26T00:09:03.079Z,74.74
2018-01-26T00:09:26.809Z,74.73
2018-01-26T00:09:50.586Z,74.77
2018-01-26T00:10:14.317Z,74.77
2018-01-26T00:10:38.360Z,74.81
2018-01-26T00:11:02.384Z,74.78
2018-01-26T00:11:26.151Z,74.74
2018-01-26T00:11:49.902Z,74.67
2018-01-26T00:12:13.639Z,74.68
2018-01-26T00:12:37.418Z,74.71
2018-01-26T00:13:01.215Z,74.71
2018-01-26T00:13:25.257Z,74.68
2018-01-26T00:13:48.997Z,74.72
2018-01-26T00:14:12.747Z,74.73
2018-01-26T00:14:36.495Z,74.73
2018-01-26T00:15:00.233Z,74.66
2018-01-26T00:15:24.039Z,74.60
2018-01-26T00:15:48.107Z,74.55
2018-01-26T00:16:11.864Z,74.54
2018-01-26T00:16:35.616Z,74.49
2018-01-26T00:16:59.347Z,74.45
2018-01-26T00:17:23.090Z,74.44
2018-01-26T00:17:46.817Z,74.50
2018-01-26T00:18:10.267Z,74.52
2018-01-26T00:18:33.997Z,74.49
2018-01-26T00:18:57.774Z,74.45
2018-01-26T00:19:21.301Z,74.43
2018-01-26T00:19:45.043Z,74.37
2018-01-26T00:20:08.773Z,74.33
2018-01-26T00:20:32.826Z,74.37
2018-01-26T00:20:56.832Z,74.34
2018-01-26T00:21:20.572Z,74.34
2018-01-26T00:21:44.322Z,74.32
2018-01-26T00:22:07.909Z,74.34
2018-01-26T00:22:31.708Z,74.37
2018-01-26T00:22:55.734Z,74.45
2018-01-26T00:23:19.495Z,74.51
2018-01-26T00:23:42.949Z,74.56
2018-01-26T00:24:06.721Z,74.63
2018-01-26T00:24:30.549Z,74.59
2018-01-26T00:24:54.559Z,74.58
2018-01-26T00:25:18.566Z,74.54
2018-01-26T00:25:42.238Z,74.52
2018-01-26T00:26:06.307Z,74.54
2018-01-26T00:26:29.823Z,74.53
2018-01-26T00:26:53.615Z,74.49
2018-01-26T00:27:17.415Z,74.43
2018-01-26T00:27:41.429Z,74.32
2018-01-26T00:28:05.185Z,74.29
2018-01-26T00:28:28.927Z,74.26
2018-01-26T00:28:52.670Z,74.25
2018-01-26T00:29:16.424Z,74.24
2018-01-26T00:29:40.259Z,74.28
2018-01-26T00:30:03.967Z,74.26
2018-01-26T00:30:27.703Z,74.25
2018-01-26T00:30:51.460Z,74.21
2018-01-26T00:31:14.830Z,74.20
2018-01-26T00:31:38.591Z,74.21
2018-01-26T00:32:02.345Z,74.17
2018-01-26T00:32:26.092Z,74.19
2018-01-26T00:32:50.127Z,74.19
2018-01-26T00:33:13.867Z,74.28
2018-01-26T00:33:37.314Z,74.33
2018-01-26T00:34:01.153Z,74.29
2018-01-26T00:34:24.883Z,74.28
2018-01-26T00:34:48.911Z,74.25
2018-01-26T00:35:12.952Z,74.22
2018-01-26T00:35:36.977Z,74.21
2018-01-26T00:36:00.734Z,74.19
2018-01-26T00:36:24.194Z,74.15
2018-01-26T00:36:47.931Z,74.10
2018-01-26T00:37:11.698Z,74.07
2018-01-26T00:37:35.204Z,74.11
2018-01-26T00:37:58.941Z,74.12
2018-01-26T00:38:22.703Z,74.15
2018-01-26T00:38:46.721Z,74.10
2018-01-26T00:39:10.735Z,74.09
2018-01-26T00:39:34.202Z,74.04
2018-01-26T00:39:57.946Z,73.93
2018-01-26T00:40:21.673Z,73.93
2018-01-26T00:40:45.699Z,73.87
2018-01-26T00:41:09.456Z,73.93
2018-01-26T00:41:32.901Z,73.92
2018-01-26T00:41:56.627Z,73.92
2018-01-26T00:42:20.457Z,73.89
2018-01-26T00:42:44.480Z,73.86
2018-01-26T00:43:08.491Z,73.85
2018-01-26T00:43:32.504Z,73.84
2018-01-26T00:43:55.950Z,73.81
2018-01-26T00:44:19.700Z,73.80
2018-01-26T00:44:43.429Z,73.80
2018-01-26T00:45:06.928Z,73.77
2018-01-26T00:45:30.663Z,73.75
2018-01-26T00:45:54.400Z,73.78
2018-01-26T00:46:18.155Z,73.76
2018-01-26T00:46:41.643Z,73.70
2018-01-26T00:47:05.399Z,73.72
2018-01-26T00:47:29.164Z,73.75
2018-01-26T00:47:53.211Z,73.74
2018-01-26T00:48:17.243Z,73.75
2018-01-26T00:48:40.979Z,73.77
2018-01-26T00:49:04.753Z,73.79
2018-01-26T00:49:28.554Z,73.74
2018-01-26T00:49:52.319Z,73.74
2018-01-26T00:50:16.058Z,73.74
2018-01-26T00:50:40.107Z,73.71
2018-01-26T00:51:03.855Z,73.67
2018-01-26T00:51:27.606Z,73.60
2018-01-26T00:51:51.351Z,73.53
2018-01-26T00:52:15.075Z,73.51
2018-01-26T00:52:38.831Z,73.43
2018-01-26T00:53:02.287Z,73.40
2018-01-26T00:53:26.051Z,73.39
2018-01-26T00:53:49.878Z,73.39
2018-01-26T00:54:13.901Z,73.35
2018-01-26T00:54:37.357Z,73.36
2018-01-26T00:55:01.088Z,73.36
2018-01-26T00:55:24.903Z,73.38
2018-01-26T00:55:48.663Z,73.35
2018-01-26T00:56:12.116Z,73.35
2018-01-26T00:56:35.858Z,73.31
2018-01-26T00:56:59.603Z,73.25
2018-01-26T00:57:23.619Z,73.25
2018-01-26T00:57:47.656Z,73.23
2018-01-26T00:58:11.681Z,73.22
2018-01-26T00:58:35.437Z,73.18
2018-01-26T00:58:59.192Z,73.17
2018-01-26T00:59:22.944Z,73.19
2018-01-26T00:59:46.696Z,73.23
2018-01-26T01:00:10.095Z,73.28
2018-01-26T01:00:33.824Z,73.29
2018-01-26T01:00:57.595Z,73.32
2018-01-26T01:01:21.359Z,73.37
2018-01-26T01:01:45.427Z,73.43
2018-01-26T01:02:08.885Z,73.52
2018-01-26T01:02:32.624Z,73.58
2018-01-26T01:02:56.412Z,73.67
2018-01-26T01:03:20.191Z,73.75
2018-01-26T01:03:43.642Z,73.80
2018-01-26T01:04:07.387Z,73.87
2018-01-26T01:04:31.127Z,73.88
2018-01-26T01:04:54.585Z,73.87
2018-01-26T01:05:18.327Z,73.86
2018-01-26T01:05:42.095Z,73.90
2018-01-26T01:06:05.623Z,73.88
2018-01-26T01:06:29.368Z,73.85
2018-01-26T01:06:53.102Z,73.86
2018-01-26T01:07:17.103Z,73.88
2018-01-26T01:07:41.125Z,73.87
2018-01-26T01:08:05.165Z,73.87
2018-01-26T01:08:28.928Z,73.87
2018-01-26T01:08:52.676Z,73.89
2018-01-26T01:09:16.400Z,73.87
2018-01-26T01:09:40.153Z,73.91
2018-01-26T01:10:03.921Z,73.93
2018-01-26T01:10:27.368Z,73.89
2018-01-26T01:10:51.112Z,73.91
2018-01-26T01:11:14.969Z,73.96
2018-01-26T01:11:38.966Z,74.06
2018-01-26T01:12:02.434Z,74.08
2018-01-26T01:12:26.152Z,74.09
2018-01-26T01:12:49.516Z,74.08
2018-01-26T01:13:13.267Z,74.10
2018-01-26T01:13:37.015Z,74.17
2018-01-26T01:14:00.756Z,74.29
2018-01-26T01:14:24.766Z,74.32
2018-01-26T01:14:48.791Z,74.35
2018-01-26T01:15:12.854Z,74.38
2018-01-26T01:15:36.745Z,74.37
2018-01-26T01:16:00.764Z,74.33
2018-01-26T01:16:24.220Z,74.32
2018-01-26T01:16:47.954Z,74.28
2018-01-26T01:17:11.691Z,74.28
2018-01-26T01:17:35.724Z,74.30
2018-01-26T01:17:59.481Z,74.32
2018-01-26T01:18:23.234Z,74.34
2018-01-26T01:18:46.987Z,74.36
2018-01-26T01:19:10.716Z,74.38
2018-01-26T01:19:34.454Z,74.38
2018-01-26T01:19:58.485Z,74.41
2018-01-26T01:20:22.481Z,74.41
2018-01-26T01:20:46.483Z,74.42
2018-01-26T01:21:10.501Z,74.47
2018-01-26T01:21:34.539Z,74.53
2018-01-26T01:21:58.333Z,74.60
2018-01-26T01:22:21.797Z,74.67
2018-01-26T01:22:45.536Z,74.69
2018-01-26T01:23:09.310Z,74.72
2018-01-26T01:23:32.774Z,74.72
2018-01-26T01:23:56.517Z,74.77
2018-01-26T01:24:20.261Z,74.83
2018-01-26T01:24:44.297Z,74.82
2018-01-26T01:25:08.312Z,74.83
2018-01-26T01:25:32.328Z,74.80
2018-01-26T01:25:55.777Z,74.83
2018-01-26T01:26:19.514Z,74.85
2018-01-26T01:26:43.237Z,74.86
2018-01-26T01:27:07.243Z,74.87
2018-01-26T01:27:30.695Z,74.93
2018-01-26T01:27:54.439Z,74.99
2018-01-26T01:28:18.202Z,74.99
2018-01-26T01:28:41.675Z,74.96
2018-01-26T01:29:05.320Z,74.92
2018-01-26T01:29:29.115Z,74.87
2018-01-26T01:29:53.125Z,74.83
2018-01-26T01:30:16.578Z,74.84
2018-01-26T01:30:40.375Z,74.82
2018-01-26T01:31:04.109Z,74.78
2018-01-26T01:31:27.907Z,74.75
2018-01-26T01:31:51.962Z,74.73
2018-01-26T01:32:16.029Z,74.71
2018-01-26T01:32:39.771Z,74.68
2018-01-26T01:33:03.499Z,74.65
2018-01-26T01:33:27.230Z,74.64
2018-01-26T01:33:50.987Z,74.61
2018-01-26T01:34:14.401Z,74.59
2018-01-26T01:34:38.131Z,74.57
2018-01-26T01:35:01.865Z,74.59
2018-01-26T01:35:25.883Z,74.61
2018-01-26T01:35:49.643Z,74.59
2018-01-26T01:36:13.091Z,74.57
2018-01-26T01:36:36.825Z,74.54
2018-01-26T01:37:00.592Z,74.51
2018-01-26T01:37:24.045Z,74.52
2018-01-26T01:37:47.803Z,74.53
2018-01-26T01:38:11.608Z,74.54
2018-01-26T01:38:35.617Z,74.50
2018-01-26T01:38:59.638Z,74.47
2018-01-26T01:39:23.659Z,74.48
2018-01-26T01:39:47.667Z,74.42
2018-01-26T01:40:11.419Z,74.40
2018-01-26T01:40:35.198Z,74.40
2018-01-26T01:40:58.933Z,74.39
2018-01-26T01:41:22.677Z,74.37
2018-01-26T01:41:46.417Z,74.36
2018-01-26T01:42:09.858Z,74.37
2018-01-26T01:42:33.604Z,74.38
2018-01-26T01:42:57.342Z,74.38
2018-01-26T01:43:20.824Z,74.40
2018-01-26T01:43:44.748Z,74.43
2018-01-26T01:44:08.508Z,74.46
2018-01-26T01:44:32.245Z,74.47
2018-01-26T01:44:55.683Z,74.46
2018-01-26T01:45:19.417Z,74.46
2018-01-26T01:45:43.157Z,74.46
2018-01-26T01:46:06.912Z,74.46
2018-01-26T01:46:30.649Z,74.46
2018-01-26T01:46:54.393Z,74.46
2018-01-26T01:47:17.852Z,74.47
2018-01-26T01:47:41.739Z,74.48
2018-01-26T01:48:05.494Z,74.46
2018-01-26T01:48:29.239Z,74.46
2018-01-26T01:49:04.194Z,74.46
2018-01-26T01:49:27.663Z,74.42
2018-01-26T01:49:51.413Z,74.39
2018-01-26T01:50:15.139Z,74.36
2018-01-26T01:50:38.604Z,74.36
2018-01-26T01:51:02.335Z,74.38
2018-01-26T01:51:26.078Z,74.37
2018-01-26T01:51:49.532Z,74.40
2018-01-26T01:52:13.260Z,74.42
2018-01-26T01:52:36.996Z,74.50
2018-01-26T01:53:01.021Z,74.53
2018-01-26T01:53:24.778Z,74.57
2018-01-26T01:53:48.213Z,74.63
2018-01-26T01:54:11.952Z,74.70
2018-01-26T01:54:35.715Z,74.71
2018-01-26T01:54:59.453Z,74.68
2018-01-26T01:55:23.186Z,74.66
2018-01-26T01:55:46.595Z,74.61
2018-01-26T01:56:10.326Z,74.58
2018-01-26T01:56:34.051Z,74.54
2018-01-26T01:56:57.803Z,74.48
2018-01-26T01:57:21.252Z,74.46
2018-01-26T01:57:44.985Z,74.45
2018-01-26T01:58:08.723Z,74.41
2018-01-26T01:58:32.728Z,74.34
2018-01-26T01:58:56.816Z,74.32
2018-01-26T01:59:20.568Z,74.35
2018-01-26T01:59:44.045Z,74.38
2018-01-26T02:00:07.798Z,74.45
2018-01-26T02:00:31.421Z,74.46
2018-01-26T02:00:55.165Z,74.51
2018-01-26T02:01:18.887Z,74.52
2018-01-26T02:01:42.655Z,74.48
2018-01-26T02:02:06.443Z,74.55
2018-01-26T02:02:30.705Z,74.59
2018-01-26T02:02:54.502Z,74.61
2018-01-26T02:03:18.585Z,74.59
2018-01-26T02:03:42.331Z,74.52
2018-01-26T02:04:05.781Z,74.44
2018-01-26T02:04:29.527Z,74.42
2018-01-26T02:04:53.299Z,74.40
2018-01-26T02:05:16.909Z,74.41
2018-01-26T02:05:41.129Z,74.45
2018-01-26T02:06:05.050Z,74.44
2018-01-26T02:06:28.950Z,74.39
2018-01-26T02:06:52.557Z,74.38
2018-01-26T02:07:16.327Z,74.35
2018-01-26T02:07:40.098Z,74.38
2018-01-26T02:08:03.537Z,74.46
2018-01-26T02:08:27.267Z,74.46
2018-01-26T02:08:50.655Z,74.49
2018-01-26T02:09:14.404Z,74.55
2018-01-26T02:09:38.131Z,74.56
2018-01-26T02:10:02.175Z,74.56
2018-01-26T02:10:25.951Z,74.58
2018-01-26T02:10:49.462Z,74.66
2018-01-26T02:11:13.258Z,74.71
2018-01-26T02:11:36.987Z,74.74
2018-01-26T02:12:01.016Z,74.77
2018-01-26T02:12:25.087Z,74.73
2018-01-26T02:12:48.837Z,74.67
2018-01-26T02:13:12.296Z,74.62
2018-01-26T02:13:36.044Z,74.59
2018-01-26T02:13:59.784Z,74.58
2018-01-26T02:14:23.234Z,74.57
2018-01-26T02:14:46.963Z,74.50
2018-01-26T02:15:10.787Z,74.47
2018-01-26T02:15:34.826Z,74.48
2018-01-26T02:15:58.828Z,74.50
2018-01-26T02:16:22.850Z,74.56
2018-01-26T02:16:46.291Z,74.59
2018-01-26T02:17:10.067Z,74.60
2018-01-26T02:17:33.793Z,74.62
2018-01-26T02:17:57.255Z,74.61
2018-01-26T02:18:20.985Z,74.61
2018-01-26T02:18:44.706Z,74.66
2018-01-26T02:19:08.736Z,74.68
2018-01-26T02:19:32.184Z,74.68
2018-01-26T02:19:55.568Z,74.72
2018-01-26T02:20:18.353Z,74.72
2018-01-26T02:20:42.089Z,74.71
2018-01-26T02:21:05.139Z,74.75
2018-01-26T02:21:28.931Z,74.76
2018-01-26T02:21:52.686Z,74.82
2018-01-26T02:22:16.441Z,74.90
2018-01-26T02:22:39.886Z,74.93
2018-01-26T02:23:03.614Z,74.94
2018-01-26T02:23:27.370Z,74.95
2018-01-26T02:24:07.683Z,75.00
2018-01-26T02:24:47.821Z,75.07
2018-01-26T02:25:28.237Z,75.10
2018-01-26T02:25:51.683Z,75.15
2018-01-26T02:26:15.451Z,75.17
2018-01-26T02:26:39.194Z,75.24
2018-01-26T02:27:02.654Z,75.28
2018-01-26T02:27:26.390Z,75.30
2018-01-26T02:27:50.123Z,75.27
2018-01-26T02:28:13.575Z,75.25
2018-01-26T02:28:37.307Z,75.16
2018-01-26T02:29:01.043Z,75.11
2018-01-26T02:29:24.772Z,75.04
2018-01-26T02:29:48.531Z,75.02
2018-01-26T02:30:12.274Z,75.00
2018-01-26T02:30:36.046Z,74.92
2018-01-26T02:30:59.491Z,74.93
2018-01-26T02:31:23.224Z,74.88
2018-01-26T02:31:46.982Z,74.83
2018-01-26T02:32:11.016Z,74.78
2018-01-26T02:32:35.043Z,74.75
2018-01-26T02:32:59.058Z,74.74
2018-01-26T02:33:23.080Z,74.73
2018-01-26T02:33:46.826Z,74.73
2018-01-26T02:34:10.271Z,74.69
2018-01-26T02:34:34.039Z,74.69
2018-01-26T02:34:57.812Z,74.67
2018-01-26T02:35:21.277Z,74.64
2018-01-26T02:35:45.029Z,74.67
2018-01-26T02:36:08.771Z,74.68
2018-01-26T02:36:32.802Z,74.64
2018-01-26T02:36:56.818Z,74.61
2018-01-26T02:37:20.844Z,74.57
2018-01-26T02:37:47.055Z,74.58
2018-01-26T02:38:10.824Z,74.58
2018-01-26T02:38:34.563Z,74.57
2018-01-26T02:38:58.113Z,74.52
2018-01-26T02:39:21.854Z,74.47
2018-01-26T02:39:45.595Z,74.52
2018-01-26T02:40:09.544Z,74.51
2018-01-26T02:40:32.979Z,74.49
2018-01-26T02:40:56.725Z,74.48
2018-01-26T02:41:20.468Z,74.47
2018-01-26T02:41:44.483Z,74.49
2018-01-26T02:42:08.507Z,74.47
2018-01-26T02:42:32.542Z,74.47
2018-01-26T02:42:55.995Z,74.51
2018-01-26T02:43:19.725Z,74.57
2018-01-26T02:43:43.512Z,74.60
2018-01-26T02:44:07.265Z,74.64
2018-01-26T02:44:30.728Z,74.68
2018-01-26T02:44:54.458Z,74.70
2018-01-26T02:45:18.194Z,74.67
2018-01-26T02:45:41.664Z,74.67
2018-01-26T02:46:05.428Z,74.73
2018-01-26T02:46:29.175Z,74.78
2018-01-26T02:46:52.623Z,74.80
2018-01-26T02:47:16.358Z,74.81
2018-01-26T02:47:40.123Z,74.83
2018-01-26T02:48:04.172Z,74.85
2018-01-26T02:48:28.179Z,74.88
2018-01-26T02:48:51.629Z,74.91
2018-01-26T02:49:15.382Z,74.90
2018-01-26T02:49:39.146Z,74.91
2018-01-26T02:50:02.890Z,74.94
2018-01-26T02:50:26.684Z,74.99
2018-01-26T02:50:50.428Z,75.04
2018-01-26T02:51:14.174Z,75.13
2018-01-26T02:51:37.929Z,75.23
2018-01-26T02:52:01.958Z,75.29
2018-01-26T02:52:25.483Z,75.32
2018-01-26T02:52:49.215Z,75.33
2018-01-26T02:53:12.940Z,75.40
2018-01-26T02:53:36.736Z,75.45
2018-01-26T02:54:00.766Z,75.44
2018-01-26T02:54:24.799Z,75.43
2018-01-26T02:54:48.249Z,75.45
2018-01-26T02:55:11.982Z,75.50
2018-01-26T02:55:35.708Z,75.52
2018-01-26T02:55:59.721Z,75.57
2018-01-26T02:56:23.539Z,75.59
2018-01-26T02:56:47.555Z,75.63
2018-01-26T02:57:11.571Z,75.67
2018-01-26T02:57:35.588Z,75.72
2018-01-26T02:57:58.752Z,75.78
2018-01-26T02:58:22.506Z,75.84
2018-01-26T02:58:46.520Z,75.90
2018-01-26T02:59:09.956Z,75.92
2018-01-26T02:59:33.687Z,75.97
2018-01-26T02:59:57.435Z,75.95
2018-01-26T03:00:21.475Z,75.96
2018-01-26T03:00:45.241Z,75.95
2018-01-26T03:01:08.679Z,75.98
2018-01-26T03:01:32.464Z,76.01
2018-01-26T03:01:56.214Z,75.98
2018-01-26T03:02:20.303Z,75.92
2018-01-26T03:02:43.752Z,75.90
2018-01-26T03:03:07.491Z,75.92
2018-01-26T03:03:31.216Z,75.95
2018-01-26T03:03:54.653Z,75.95
2018-01-26T03:04:18.449Z,75.99
2018-01-26T03:04:42.201Z,76.02
2018-01-26T03:05:05.942Z,76.09
2018-01-26T03:05:29.431Z,76.14
2018-01-26T03:05:53.161Z,76.18
2018-01-26T03:06:16.887Z,76.27
2018-01-26T03:06:40.347Z,76.31
2018-01-26T03:07:04.115Z,76.31
2018-01-26T03:07:27.851Z,76.28
2018-01-26T03:07:51.880Z,76.28
2018-01-26T03:08:15.909Z,76.30
2018-01-26T03:08:39.462Z,76.30
2018-01-26T03:09:03.199Z,76.36
2018-01-26T03:09:26.954Z,76.42
2018-01-26T03:09:50.735Z,76.45
2018-01-26T03:10:14.748Z,76.44
2018-01-26T03:10:38.767Z,76.50
2018-01-26T03:11:02.193Z,76.57
2018-01-26T03:11:25.970Z,76.62
2018-01-26T03:11:49.738Z,76.62
2018-01-26T03:12:13.511Z,76.64
2018-01-26T03:12:37.527Z,76.69
2018-01-26T03:13:01.548Z,76.69
2018-01-26T03:13:25.564Z,76.71
2018-01-26T03:13:49.003Z,76.71
2018-01-26T03:14:12.740Z,76.70
2018-01-26T03:14:36.460Z,76.73
2018-01-26T03:15:00.476Z,76.71
2018-01-26T03:15:24.215Z,76.66
2018-01-26T03:15:47.942Z,76.69
2018-01-26T03:16:11.685Z,76.73
2018-01-26T03:16:35.426Z,76.70
2018-01-26T03:16:59.181Z,76.70
2018-01-26T03:17:22.623Z,76.69
2018-01-26T03:17:46.363Z,76.71
2018-01-26T03:18:10.115Z,76.74
2018-01-26T03:18:34.128Z,76.73
2018-01-26T03:18:58.139Z,76.75
2018-01-26T03:19:22.150Z,76.75
2018-01-26T03:19:46.174Z,76.73
2018-01-26T03:20:09.632Z,76.69
2018-01-26T03:20:33.381Z,76.68
2018-01-26T03:20:57.140Z,76.71
2018-01-26T03:21:20.883Z,76.78
2018-01-26T03:21:44.327Z,76.84
2018-01-26T03:22:08.080Z,76.84
2018-01-26T03:22:31.811Z,76.84
2018-01-26T03:22:55.322Z,76.83
2018-01-26T03:23:19.077Z,76.81
2018-01-26T03:23:42.868Z,76.81
2018-01-26T03:24:06.922Z,76.79
2018-01-26T03:24:30.662Z,76.77
2018-01-26T03:24:54.108Z,76.73
2018-01-26T03:25:17.851Z,76.67
2018-01-26T03:25:41.594Z,76.62
2018-01-26T03:26:05.046Z,76.58
2018-01-26T03:26:28.797Z,76.56
2018-01-26T03:26:52.585Z,76.54
2018-01-26T03:27:16.644Z,76.51
2018-01-26T03:27:40.651Z,76.49
2018-01-26T03:28:04.418Z,76.47
2018-01-26T03:28:27.687Z,76.45
2018-01-26T03:28:51.430Z,76.45
2018-01-26T03:29:15.455Z,76.46
2018-01-26T03:29:39.467Z,76.44
2018-01-26T03:30:03.177Z,76.38
2018-01-26T03:30:26.902Z,76.41
2018-01-26T03:30:50.640Z,76.38
2018-01-26T03:31:14.394Z,76.38
2018-01-26T03:31:38.156Z,76.43
2018-01-26T03:32:01.602Z,76.45
2018-01-26T03:32:25.399Z,76.48
2018-01-26T03:32:49.163Z,76.48
2018-01-26T03:33:13.179Z,76.46
2018-01-26T03:33:37.190Z,76.46
2018-01-26T03:34:01.227Z,76.50
2018-01-26T03:34:24.992Z,76.58
2018-01-26T03:34:48.453Z,76.61
2018-01-26T03:35:12.185Z,76.64
2018-01-26T03:35:35.965Z,76.64
2018-01-26T03:36:00.008Z,76.66
2018-01-26T03:36:24.016Z,76.68
2018-01-26T03:36:48.047Z,76.68
2018-01-26T03:37:11.802Z,76.66
2018-01-26T03:37:35.261Z,76.63
2018-01-26T03:37:59.010Z,76.63
2018-01-26T03:38:22.761Z,76.65
2018-01-26T03:38:46.207Z,76.70
2018-01-26T03:39:09.944Z,76.73
2018-01-26T03:39:33.691Z,76.72
2018-01-26T03:39:57.711Z,76.65
2018-01-26T03:40:21.724Z,76.62
2018-01-26T03:40:45.751Z,76.55
2018-01-26T03:41:09.507Z,76.50
2018-01-26T03:41:33.237Z,76.49
2018-01-26T03:41:56.958Z,76.51
2018-01-26T03:42:20.703Z,76.51
2018-01-26T03:42:44.499Z,76.45
2018-01-26T03:43:08.514Z,76.52
2018-01-26T03:43:32.595Z,76.54
2018-01-26T03:43:56.477Z,76.55
2018-01-26T03:44:20.541Z,76.55
2018-01-26T03:44:44.093Z,76.56
2018-01-26T03:45:07.859Z,76.56
2018-01-26T03:45:31.611Z,76.53
2018-01-26T03:45:55.347Z,76.56
2018-01-26T03:46:19.365Z,76.57
2018-01-26T03:46:43.395Z,76.58
2018-01-26T03:47:06.843Z,76.61
2018-01-26T03:47:30.564Z,76.67
2018-01-26T03:47:54.307Z,76.65
2018-01-26T03:48:18.318Z,76.57
2018-01-26T03:48:41.748Z,76.56
2018-01-26T03:49:05.475Z,76.56
2018-01-26T03:49:29.215Z,76.52
2018-01-26T03:49:53.232Z,76.49
2018-01-26T03:50:17.313Z,76.46
2018-01-26T03:50:41.072Z,76.44
2018-01-26T03:51:04.151Z,76.42
2018-01-26T03:51:28.170Z,76.42
2018-01-26T03:51:51.605Z,76.44
2018-01-26T03:52:15.146Z,76.45
2018-01-26T03:52:41.578Z,76.47
2018-01-26T03:53:05.143Z,76.43
2018-01-26T03:53:28.907Z,76.38
2018-01-26T03:53:52.363Z,76.36
2018-01-26T03:54:16.109Z,76.29
2018-01-26T03:54:39.872Z,76.25
2018-01-26T03:55:03.303Z,76.20
2018-01-26T03:55:27.035Z,76.16
2018-01-26T03:55:50.779Z,76.12
2018-01-26T03:56:14.588Z,76.08
2018-01-26T03:56:38.341Z,76.07
2018-01-26T03:57:02.088Z,76.08
2018-01-26T03:57:25.824Z,76.10
2018-01-26T03:57:49.839Z,76.16
2018-01-26T03:58:13.868Z,76.19
2018-01-26T03:58:37.880Z,76.24
2018-01-26T03:59:01.899Z,76.26
2018-01-26T03:59:25.637Z,76.29
2018-01-26T03:59:49.388Z,76.31
2018-01-26T04:00:13.119Z,76.30
2018-01-26T04:00:36.498Z,76.34
2018-01-26T04:01:00.285Z,76.32
2018-01-26T04:01:24.027Z,76.31
2018-01-26T04:01:47.759Z,76.32
2018-01-26T04:02:11.518Z,76.29
2018-01-26T04:02:35.235Z,76.25
2018-01-26T04:02:58.956Z,76.20
2018-01-26T04:03:22.724Z,76.17
2018-01-26T04:03:46.466Z,76.19
2018-01-26T04:04:09.894Z,76.19
2018-01-26T04:04:33.630Z,76.17
2018-01-26T04:04:57.074Z,76.15
2018-01-26T04:05:20.795Z,76.13
2018-01-26T04:05:44.551Z,76.18
2018-01-26T04:06:07.979Z,76.25
2018-01-26T04:06:31.710Z,76.28
2018-01-26T04:06:55.464Z,76.29
2018-01-26T04:07:19.552Z,76.28
2018-01-26T04:07:43.272Z,76.30
2018-01-26T04:08:06.764Z,76.32
2018-01-26T04:08:30.557Z,76.33
2018-01-26T04:08:54.286Z,76.36
2018-01-26T04:09:17.973Z,76.39
2018-01-26T04:09:41.739Z,76.45
2018-01-26T04:10:05.492Z,76.48
2018-01-26T04:10:29.218Z,76.51
2018-01-26T04:10:53.253Z,76.56
2018-01-26T04:11:17.271Z,76.55
2018-01-26T04:11:41.279Z,76.55
2018-01-26T04:12:05.032Z,76.56
2018-01-26T04:12:28.788Z,76.56
2018-01-26T04:12:52.507Z,76.57
2018-01-26T04:13:16.247Z,76.60
2018-01-26T04:13:40.012Z,76.62
2018-01-26T04:14:03.716Z,76.65
2018-01-26T04:14:27.432Z,76.67
2018-01-26T04:14:51.160Z,76.68
2018-01-26T04:15:14.917Z,76.75
2018-01-26T04:15:38.429Z,76.83
2018-01-26T04:16:02.163Z,76.84
2018-01-26T04:16:25.972Z,76.85
2018-01-26T04:16:49.979Z,76.81
2018-01-26T04:17:14.079Z,76.80
2018-01-26T04:17:37.964Z,76.78
2018-01-26T04:18:01.988Z,76.78
2018-01-26T04:18:25.743Z,76.79
2018-01-26T04:18:49.503Z,76.78
2018-01-26T04:19:13.288Z,76.75
2018-01-26T04:19:37.016Z,76.72
2018-01-26T04:20:00.809Z,76.70
2018-01-26T04:20:24.841Z,76.71
2018-01-26T04:20:48.929Z,76.73
2018-01-26T04:21:12.674Z,76.77
2018-01-26T04:21:36.119Z,76.78
2018-01-26T04:21:59.871Z,76.76
2018-01-26T04:22:23.606Z,76.77
2018-01-26T04:22:47.039Z,76.79
2018-01-26T04:23:10.767Z,76.78
2018-01-26T04:23:34.517Z,76.76
2018-01-26T04:23:58.003Z,76.77
2018-01-26T04:24:21.750Z,76.80
2018-01-26T04:24:45.511Z,76.80
2018-01-26T04:25:08.957Z,76.80
2018-01-26T04:25:32.698Z,76.80
2018-01-26T04:25:56.441Z,76.85
2018-01-26T04:26:19.888Z,76.91
2018-01-26T04:26:43.653Z,76.92
2018-01-26T04:27:07.416Z,76.89
2018-01-26T04:27:31.440Z,76.88
2018-01-26T04:27:55.440Z,76.89
2018-01-26T04:28:19.470Z,76.87
2018-01-26T04:28:43.213Z,76.92
2018-01-26T04:29:06.975Z,76.93
2018-01-26T04:29:30.528Z,76.97
2018-01-26T04:29:53.911Z,76.99
2018-01-26T04:30:17.449Z,77.00
2018-01-26T04:30:40.920Z,77.00
2018-01-26T04:31:04.648Z,76.97
2018-01-26T04:31:28.393Z,76.93
2018-01-26T04:31:51.833Z,76.90
2018-01-26T04:32:15.608Z,76.88
2018-01-26T04:32:39.376Z,76.85
2018-01-26T04:33:03.116Z,76.82
2018-01-26T04:33:26.844Z,76.85
2018-01-26T04:33:50.571Z,76.83
2018-01-26T04:34:14.409Z,76.78
2018-01-26T04:34:38.139Z,76.76
2018-01-26T04:35:02.176Z,76.73
2018-01-26T04:35:26.184Z,76.72
2018-01-26T04:35:49.624Z,76.70
2018-01-26T04:36:13.398Z,76.65
2018-01-26T04:36:37.136Z,76.59
2018-01-26T04:37:00.907Z,76.54
2018-01-26T04:37:25.318Z,76.51
2018-01-26T04:37:49.298Z,76.49
2018-01-26T04:38:13.032Z,76.47
2018-01-26T04:38:36.495Z,76.44
2018-01-26T04:39:00.262Z,76.42
2018-01-26T04:39:24.024Z,76.38
2018-01-26T04:39:47.817Z,76.39
2018-01-26T04:40:11.833Z,76.41
2018-01-26T04:40:35.848Z,76.40
2018-01-26T04:40:59.859Z,76.40
2018-01-26T04:41:23.306Z,76.40
2018-01-26T04:41:47.063Z,76.43
2018-01-26T04:42:10.825Z,76.44
2018-01-26T04:42:34.556Z,76.45
2018-01-26T04:42:58.283Z,76.44
2018-01-26T04:43:22.019Z,76.45
2018-01-26T04:43:45.735Z,76.49
2018-01-26T04:44:09.168Z,76.53
2018-01-26T04:44:32.959Z,76.56
2018-01-26T04:44:56.750Z,76.56
2018-01-26T04:45:20.501Z,76.55
2018-01-26T04:45:43.993Z,76.53
2018-01-26T04:46:07.723Z,76.52
2018-01-26T04:46:31.463Z,76.55
2018-01-26T04:46:54.952Z,76.55
2018-01-26T04:47:18.691Z,76.53
2018-01-26T04:47:42.440Z,76.54
2018-01-26T04:48:06.503Z,76.57
2018-01-26T04:48:30.251Z,76.67
2018-01-26T04:48:53.995Z,76.75
2018-01-26T04:49:17.721Z,76.77
2018-01-26T04:49:41.493Z,76.79
2018-01-26T04:50:05.279Z,76.85
2018-01-26T04:50:29.308Z,76.86
2018-01-26T04:50:53.324Z,76.83
2018-01-26T04:51:16.802Z,76.79
2018-01-26T04:51:40.527Z,76.79
2018-01-26T04:52:04.258Z,76.81
2018-01-26T04:52:28.343Z,76.82
2018-01-26T04:52:52.078Z,76.85
2018-01-26T04:53:15.574Z,76.87
2018-01-26T04:53:39.308Z,76.89
2018-01-26T04:54:03.114Z,76.95
2018-01-26T04:54:27.139Z,77.04
2018-01-26T04:54:50.611Z,77.09
2018-01-26T04:55:14.358Z,77.09
2018-01-26T04:55:38.095Z,77.06
2018-01-26T04:56:01.547Z,77.04
2018-01-26T04:56:25.285Z,77.02
2018-01-26T04:56:49.019Z,77.05
2018-01-26T04:57:13.093Z,77.07
2018-01-26T04:57:36.883Z,77.15
2018-01-26T04:58:00.898Z,77.21
2018-01-26T04:58:24.919Z,77.23
2018-01-26T04:58:48.967Z,77.25
2018-01-26T04:59:12.709Z,77.25
2018-01-26T04:59:36.142Z,77.27
2018-01-26T04:59:59.892Z,77.28
2018-01-26T05:00:23.635Z,77.26
2018-01-26T05:00:47.100Z,77.25
2018-01-26T05:01:10.838Z,77.25
2018-01-26T05:01:34.583Z,77.23
2018-01-26T05:01:58.035Z,77.25
2018-01-26T05:02:21.799Z,77.28
2018-01-26T05:02:45.728Z,77.30
2018-01-26T05:03:09.483Z,77.29
2018-01-26T05:03:32.564Z,77.31
2018-01-26T05:03:56.577Z,77.34
2018-01-26T05:04:20.013Z,77.32
2018-01-26T05:04:43.752Z,77.30
2018-01-26T05:05:07.509Z,77.32
2018-01-26T05:05:31.269Z,77.32
2018-01-26T05:05:55.032Z,77.30
2018-01-26T05:06:18.783Z,77.30
2018-01-26T05:06:42.520Z,77.32
2018-01-26T05:07:06.283Z,77.32